createdAt,value
2023-02-06T05:00:37.327Z,0.00
2023-02-06T05:01:36.729Z,0.00
2023-02-06T05:02:36.697Z,0.00
2023-02-06T05:03:36.645Z,0.00
2023-02-06T05:04:36.612Z,0.00
2023-02-06T05:05:36.874Z,0.00
2023-02-06T05:06:36.604Z,0.00
2023-02-06T05:07:36.609Z,0.00
2023-02-06T05:08:36.572Z,0.00
2023-02-06T05:09:36.577Z,0.00
2023-02-06T05:10:36.559Z,0.00
2023-02-06T05:11:36.558Z,0.00
2023-02-06T05:12:36.562Z,0.00
2023-02-06T05:13:36.522Z,0.00
2023-02-06T05:14:36.520Z,0.00
2023-02-06T05:15:37.006Z,0.00
2023-02-06T05:16:36.486Z,0.00
2023-02-06T05:17:36.493Z,0.00
2023-02-06T05:18:36.500Z,0.00
2023-02-06T05:19:36.521Z,0.00
2023-02-06T05:20:36.465Z,0.00
2023-02-06T05:21:36.562Z,0.00
2023-02-06T05:22:36.432Z,0.00
2023-02-06T05:23:36.452Z,0.00
2023-02-06T05:24:36.446Z,0.00
2023-02-06T05:25:36.857Z,0.00
2023-02-06T05:26:36.401Z,0.00
2023-02-06T05:27:36.410Z,0.00
2023-02-06T05:28:36.384Z,0.00
2023-02-06T05:29:36.691Z,0.00
2023-02-06T05:30:36.414Z,0.00
2023-02-06T05:31:36.510Z,0.00
2023-02-06T05:32:36.842Z,0.00
2023-02-06T05:33:36.320Z,0.00
2023-02-06T05:34:36.323Z,0.00
2023-02-06T05:35:36.584Z,0.00
2023-02-06T05:36:36.311Z,0.00
2023-02-06T05:37:36.297Z,0.00
2023-02-06T05:38:36.325Z,0.00
2023-02-06T05:39:36.278Z,0.00
2023-02-06T05:40:36.246Z,0.00
2023-02-06T05:41:36.259Z,0.00
2023-02-06T05:42:36.274Z,0.00
2023-02-06T05:43:36.245Z,0.00
2023-02-06T05:44:36.239Z,0.00
2023-02-06T05:45:36.333Z,0.00
2023-02-06T05:46:36.274Z,0.00
2023-02-06T05:47:36.196Z,0.00
2023-02-06T05:48:36.174Z,0.00
2023-02-06T05:49:36.194Z,0.00
2023-02-06T05:50:36.220Z,0.00
2023-02-06T05:51:36.101Z,1.00
2023-02-06T05:52:36.128Z,0.00
2023-02-06T05:53:36.134Z,0.00
2023-02-06T05:54:36.158Z,0.00
2023-02-06T05:55:37.274Z,0.00
2023-02-06T05:56:36.092Z,0.00
2023-02-06T05:57:36.080Z,0.00
2023-02-06T05:58:36.078Z,0.00
2023-02-06T05:59:36.084Z,0.00
2023-02-06T06:00:36.057Z,0.00
2023-02-06T06:01:36.067Z,0.00
2023-02-06T06:02:36.030Z,0.00
2023-02-06T06:03:36.117Z,0.00
2023-02-06T06:04:36.031Z,0.00
2023-02-06T06:05:36.297Z,0.00
2023-02-06T06:06:36.027Z,0.00
2023-02-06T06:07:35.939Z,1.00
2023-02-06T06:08:35.999Z,0.00
2023-02-06T06:09:35.971Z,0.00
2023-02-06T06:10:36.010Z,0.00
2023-02-06T06:11:35.959Z,0.00
2023-02-06T06:12:35.944Z,0.00
2023-02-06T06:13:35.878Z,1.00
2023-02-06T06:14:35.879Z,1.00
2023-02-06T06:15:36.099Z,1.00
2023-02-06T06:16:35.913Z,0.00
2023-02-06T06:17:35.882Z,0.00
2023-02-06T06:18:35.834Z,2.00
2023-02-06T06:19:35.843Z,1.00
2023-02-06T06:20:35.813Z,1.00
2023-02-06T06:21:35.804Z,2.00
2023-02-06T06:22:35.783Z,1.00
2023-02-06T06:23:35.771Z,1.00
2023-02-06T06:24:35.801Z,1.00
2023-02-06T06:25:36.166Z,5.00
2023-02-06T06:26:35.744Z,7.00
2023-02-06T06:27:35.730Z,4.00
2023-02-06T06:28:35.730Z,2.00
2023-02-06T06:29:35.703Z,5.00
2023-02-06T06:30:35.896Z,9.00
2023-02-06T06:31:35.809Z,7.00
2023-02-06T06:32:35.678Z,12.00
2023-02-06T06:33:35.681Z,11.00
2023-02-06T06:34:35.759Z,14.00
2023-02-06T06:35:35.950Z,16.00
2023-02-06T06:36:35.645Z,15.00
2023-02-06T06:37:35.768Z,19.00
2023-02-06T06:38:35.684Z,21.00
2023-02-06T06:39:35.622Z,23.00
2023-02-06T06:40:35.641Z,28.00
2023-02-06T06:41:35.721Z,32.00
2023-02-06T06:42:35.584Z,32.00
2023-02-06T06:43:35.668Z,40.00
2023-02-06T06:44:35.601Z,45.00
2023-02-06T06:45:35.851Z,47.00
2023-02-06T06:46:36.749Z,48.00
2023-02-06T06:47:35.532Z,48.00
2023-02-06T06:48:35.573Z,56.00
2023-02-06T06:49:35.551Z,57.00
2023-02-06T06:50:35.533Z,62.00
2023-02-06T06:51:35.509Z,69.00
2023-02-06T06:52:35.499Z,81.00
2023-02-06T06:53:35.456Z,86.00
2023-02-06T06:54:35.668Z,88.00
2023-02-06T06:55:35.694Z,93.00
2023-02-06T06:56:35.514Z,97.00
2023-02-06T06:57:35.416Z,102.00
2023-02-06T06:58:35.424Z,106.00
2023-02-06T06:59:35.435Z,105.00
2023-02-06T07:00:35.390Z,113.00
2023-02-06T07:01:35.382Z,116.00
2023-02-06T07:02:35.418Z,125.00
2023-02-06T07:03:35.359Z,138.00
2023-02-06T07:04:35.391Z,149.00
2023-02-06T07:05:35.678Z,158.00
2023-02-06T07:06:35.357Z,159.00
2023-02-06T07:07:35.369Z,156.00
2023-02-06T07:08:35.316Z,166.00
2023-02-06T07:09:35.313Z,178.00
2023-02-06T07:10:35.312Z,188.00
2023-02-06T07:11:35.284Z,193.00
2023-02-06T07:12:35.276Z,201.00
2023-02-06T07:13:35.263Z,224.00
2023-02-06T07:14:35.266Z,242.00
2023-02-06T07:15:35.674Z,252.00
2023-02-06T07:16:35.253Z,269.00
2023-02-06T07:17:35.211Z,290.00
2023-02-06T07:18:35.215Z,303.00
2023-02-06T07:19:35.209Z,307.00
2023-02-06T07:20:35.183Z,320.00
2023-02-06T07:21:35.181Z,302.00
2023-02-06T07:22:35.171Z,311.00
2023-02-06T07:23:35.147Z,332.00
2023-02-06T07:24:35.156Z,361.00
2023-02-06T07:25:35.632Z,383.00
2023-02-06T07:26:35.147Z,400.00
2023-02-06T07:27:35.118Z,409.00
2023-02-06T07:28:35.115Z,422.00
2023-02-06T07:29:35.226Z,418.00
2023-02-06T07:30:35.097Z,410.00
2023-02-06T07:31:35.142Z,397.00
2023-02-06T07:32:35.060Z,394.00
2023-02-06T07:33:35.050Z,399.00
2023-02-06T07:34:35.103Z,431.00
2023-02-06T07:35:35.422Z,466.00
2023-02-06T07:36:35.018Z,498.00
2023-02-06T07:37:35.020Z,521.00
2023-02-06T07:38:35.015Z,536.00
2023-02-06T07:39:34.997Z,554.00
2023-02-06T07:40:44.614Z,567.00
2023-02-06T07:41:34.975Z,580.00
2023-02-06T07:42:35.120Z,573.00
2023-02-06T07:43:34.970Z,593.00
2023-02-06T07:44:34.984Z,631.00
2023-02-06T07:45:35.330Z,669.00
2023-02-06T07:46:34.945Z,698.00
2023-02-06T07:47:34.924Z,721.00
2023-02-06T07:48:34.905Z,747.00
2023-02-06T07:49:34.897Z,754.00
2023-02-06T07:50:34.881Z,766.00
2023-02-06T07:51:34.858Z,790.00
2023-02-06T07:52:34.874Z,809.00
2023-02-06T07:53:34.886Z,809.00
2023-02-06T07:54:34.902Z,820.00
2023-02-06T07:55:35.208Z,870.00
2023-02-06T07:56:34.835Z,938.00
2023-02-06T07:57:34.809Z,1008.00
2023-02-06T07:58:34.825Z,1164.00
2023-02-06T07:59:34.805Z,1349.00
2023-02-06T08:00:34.786Z,1469.00
2023-02-06T08:01:34.772Z,1529.00
2023-02-06T08:02:34.752Z,1522.00
2023-02-06T08:03:34.740Z,1533.00
2023-02-06T08:04:34.789Z,1552.00
2023-02-06T08:05:34.864Z,1499.00
2023-02-06T08:06:34.720Z,1472.00
2023-02-06T08:07:34.723Z,1478.00
2023-02-06T08:08:34.691Z,1456.00
2023-02-06T08:09:34.696Z,1416.00
2023-02-06T08:10:34.678Z,1373.00
2023-02-06T08:11:34.664Z,1266.00
2023-02-06T08:12:34.711Z,1170.00
2023-02-06T08:13:34.664Z,1164.00
2023-02-06T08:14:34.640Z,1097.00
2023-02-06T08:15:35.065Z,1015.00
2023-02-06T08:16:34.690Z,969.00
2023-02-06T08:17:34.621Z,980.00
2023-02-06T08:18:34.595Z,990.00
2023-02-06T08:19:34.574Z,985.00
2023-02-06T08:20:34.575Z,973.00
2023-02-06T08:21:34.632Z,916.00
2023-02-06T08:22:34.546Z,896.00
2023-02-06T08:23:34.540Z,941.00
2023-02-06T08:24:34.546Z,983.00
2023-02-06T08:25:35.177Z,1148.00
2023-02-06T08:26:34.556Z,1481.00
2023-02-06T08:27:34.497Z,1506.00
2023-02-06T08:28:34.485Z,1349.00
2023-02-06T08:29:34.476Z,1192.00
2023-02-06T08:30:34.567Z,1088.00
2023-02-06T08:31:34.596Z,1079.00
2023-02-06T08:32:34.461Z,1098.00
2023-02-06T08:33:34.436Z,1058.00
2023-02-06T08:34:34.427Z,1004.00
2023-02-06T08:35:34.790Z,966.00
2023-02-06T08:36:34.447Z,1032.00
2023-02-06T08:37:34.393Z,1134.00
2023-02-06T08:38:34.388Z,1243.00
2023-02-06T08:39:34.378Z,1359.00
2023-02-06T08:40:34.391Z,1411.00
2023-02-06T08:41:34.352Z,1415.00
2023-02-06T08:42:34.338Z,1373.00
2023-02-06T08:43:34.329Z,1397.00
2023-02-06T08:44:34.319Z,1441.00
2023-02-06T08:45:34.647Z,1492.00
2023-02-06T08:46:34.324Z,1557.00
2023-02-06T08:47:34.281Z,1617.00
2023-02-06T08:48:34.284Z,1495.00
2023-02-06T08:49:34.280Z,1374.00
2023-02-06T08:50:34.546Z,1418.00
2023-02-06T08:51:34.266Z,1545.00
2023-02-06T08:52:34.247Z,1525.00
2023-02-06T08:53:34.296Z,1455.00
2023-02-06T08:54:36.366Z,1444.00
2023-02-06T08:55:34.220Z,1607.00
2023-02-06T08:56:34.198Z,1861.00
2023-02-06T08:57:34.189Z,1848.00
2023-02-06T08:58:34.178Z,1732.00
2023-02-06T08:59:34.161Z,1560.00
2023-02-06T09:00:34.172Z,1501.00
2023-02-06T09:01:34.221Z,1391.00
2023-02-06T09:02:34.236Z,1182.00
2023-02-06T09:03:34.128Z,1093.00
2023-02-06T09:04:34.127Z,1248.00
2023-02-06T09:05:34.469Z,1321.00
2023-02-06T09:06:34.098Z,1231.00
2023-02-06T09:07:34.083Z,1301.00
2023-02-06T09:08:34.069Z,1375.00
2023-02-06T09:09:34.053Z,1429.00
2023-02-06T09:10:34.066Z,1400.00
2023-02-06T09:11:34.040Z,1680.00
2023-02-06T09:12:34.054Z,2152.00
2023-02-06T09:13:34.017Z,2408.00
2023-02-06T09:14:34.021Z,2283.00
2023-02-06T09:15:34.334Z,2143.00
2023-02-06T09:16:34.005Z,1912.00
2023-02-06T09:17:33.983Z,1762.00
2023-02-06T09:18:33.998Z,1771.00
2023-02-06T09:19:33.964Z,1953.00
2023-02-06T09:20:33.963Z,1901.00
2023-02-06T09:21:33.929Z,1673.00
2023-02-06T09:22:33.940Z,1528.00
2023-02-06T09:23:33.999Z,1472.00
2023-02-06T09:24:33.906Z,1420.00
2023-02-06T09:25:34.122Z,1271.00
2023-02-06T09:26:33.884Z,1160.00
2023-02-06T09:27:33.886Z,1120.00
2023-02-06T09:28:33.905Z,1032.00
2023-02-06T09:29:33.889Z,1036.00
2023-02-06T09:30:33.966Z,1053.00
2023-02-06T09:31:33.873Z,1055.00
2023-02-06T09:32:33.830Z,1159.00
2023-02-06T09:33:33.821Z,1090.00
2023-02-06T09:34:33.813Z,948.00
2023-02-06T09:35:33.862Z,938.00
2023-02-06T09:36:33.784Z,861.00
2023-02-06T09:37:33.772Z,830.00
2023-02-06T09:38:33.779Z,742.00
2023-02-06T09:39:33.744Z,765.00
2023-02-06T09:40:33.755Z,801.00
2023-02-06T09:41:33.941Z,757.00
2023-02-06T09:42:33.720Z,799.00
2023-02-06T09:43:33.724Z,859.00
2023-02-06T09:44:33.715Z,826.00
2023-02-06T09:45:34.094Z,747.00
2023-02-06T09:46:33.829Z,784.00
2023-02-06T09:47:33.669Z,717.00
2023-02-06T09:48:33.663Z,727.00
2023-02-06T09:49:33.743Z,748.00
2023-02-06T09:50:33.642Z,728.00
2023-02-06T09:51:33.620Z,749.00
2023-02-06T09:52:33.610Z,845.00
2023-02-06T09:53:33.610Z,829.00
2023-02-06T09:54:33.628Z,702.00
2023-02-06T09:55:33.771Z,808.00
2023-02-06T09:56:33.592Z,906.00
2023-02-06T09:57:33.576Z,820.00
2023-02-06T09:58:33.562Z,802.00
2023-02-06T09:59:33.556Z,804.00
2023-02-06T10:00:33.622Z,800.00
2023-02-06T10:01:33.591Z,857.00
2023-02-06T10:02:33.516Z,1016.00
2023-02-06T10:03:33.494Z,824.00
2023-02-06T10:04:33.535Z,928.00
2023-02-06T10:05:33.493Z,1001.00
2023-02-06T10:06:33.494Z,869.00
2023-02-06T10:07:33.459Z,1197.00
2023-02-06T10:08:34.499Z,1253.00
2023-02-06T10:09:33.446Z,1005.00
2023-02-06T10:10:33.458Z,993.00
2023-02-06T10:11:33.458Z,1061.00
2023-02-06T10:12:33.420Z,1063.00
2023-02-06T10:13:33.406Z,1081.00
2023-02-06T10:14:33.389Z,786.00
2023-02-06T10:15:33.492Z,930.00
2023-02-06T10:16:33.455Z,910.00
2023-02-06T10:17:33.356Z,941.00
2023-02-06T10:18:33.384Z,1091.00
2023-02-06T10:19:33.347Z,797.00
2023-02-06T10:20:33.330Z,1006.00
2023-02-06T10:21:33.308Z,932.00
2023-02-06T10:22:33.340Z,904.00
2023-02-06T10:23:33.302Z,1113.00
2023-02-06T10:24:33.324Z,1057.00
2023-02-06T10:25:33.305Z,1274.00
2023-02-06T10:26:33.262Z,1140.00
2023-02-06T10:27:33.268Z,1410.00
2023-02-06T10:28:33.242Z,1249.00
2023-02-06T10:29:33.242Z,1645.00
2023-02-06T10:30:33.223Z,1866.00
2023-02-06T10:31:33.350Z,1919.00
2023-02-06T10:32:33.231Z,1797.00
2023-02-06T10:33:33.202Z,1949.00
2023-02-06T10:34:33.215Z,2052.00
2023-02-06T10:35:33.169Z,1786.00
2023-02-06T10:36:33.162Z,1577.00
2023-02-06T10:37:33.165Z,1864.00
2023-02-06T10:38:33.186Z,1837.00
2023-02-06T10:39:33.215Z,1867.00
2023-02-06T10:40:33.122Z,1817.00
2023-02-06T10:41:33.103Z,2013.00
2023-02-06T10:42:33.162Z,1752.00
2023-02-06T10:43:33.098Z,2168.00
2023-02-06T10:44:33.075Z,2198.00
2023-02-06T10:45:33.076Z,2228.00
2023-02-06T10:46:33.120Z,2277.00
2023-02-06T10:47:33.204Z,2107.00
2023-02-06T10:48:33.090Z,2138.00
2023-02-06T10:49:33.033Z,2022.00
2023-02-06T10:50:33.016Z,1705.00
2023-02-06T10:51:33.024Z,1724.00
2023-02-06T10:52:33.000Z,1845.00
2023-02-06T10:53:33.003Z,1952.00
2023-02-06T10:54:32.977Z,1977.00
2023-02-06T10:55:32.965Z,1799.00
2023-02-06T10:56:32.960Z,1664.00
2023-02-06T10:57:32.953Z,1417.00
2023-02-06T10:58:33.043Z,1381.00
2023-02-06T10:59:32.939Z,1269.00
2023-02-06T11:00:32.969Z,1259.00
2023-02-06T11:01:32.931Z,1307.00
2023-02-06T11:02:32.977Z,1196.00
2023-02-06T11:03:32.960Z,1135.00
2023-02-06T11:04:32.881Z,1197.00
2023-02-06T11:05:32.873Z,1301.00
2023-02-06T11:06:32.861Z,1374.00
2023-02-06T11:07:32.838Z,1355.00
2023-02-06T11:08:32.831Z,1462.00
2023-02-06T11:09:32.816Z,1760.00
2023-02-06T11:10:32.879Z,1827.00
2023-02-06T11:11:32.801Z,1724.00
2023-02-06T11:12:32.789Z,1691.00
2023-02-06T11:13:32.791Z,1793.00
2023-02-06T11:14:32.764Z,1651.00
2023-02-06T11:15:32.806Z,1483.00
2023-02-06T11:16:32.820Z,1600.00
2023-02-06T11:17:32.743Z,1606.00
2023-02-06T11:18:32.749Z,1505.00
2023-02-06T11:19:32.724Z,1379.00
2023-02-06T11:20:32.831Z,1637.00
2023-02-06T11:21:32.700Z,1908.00
2023-02-06T11:22:41.502Z,1767.00
2023-02-06T11:23:32.703Z,2223.00
2023-02-06T11:24:32.687Z,1457.00
2023-02-06T11:25:32.658Z,2010.00
2023-02-06T11:26:32.658Z,1957.00
2023-02-06T11:27:32.642Z,1738.00
2023-02-06T11:28:32.657Z,1805.00
2023-02-06T11:29:32.657Z,1924.00
2023-02-06T11:30:32.646Z,2043.00
2023-02-06T11:31:32.646Z,2307.00
2023-02-06T11:32:32.576Z,1891.00
2023-02-06T11:33:32.575Z,1991.00
2023-02-06T11:34:32.565Z,2222.00
2023-02-06T11:35:32.586Z,2234.00
2023-02-06T11:36:32.544Z,2004.00
2023-02-06T11:37:32.569Z,2273.00
2023-02-06T11:38:32.540Z,2797.00
2023-02-06T11:39:32.543Z,2392.00
2023-02-06T11:40:32.501Z,2187.00
2023-02-06T11:41:32.497Z,3276.00
2023-02-06T11:42:32.507Z,3589.00
2023-02-06T11:43:32.488Z,2521.00
2023-02-06T11:44:32.461Z,3197.00
2023-02-06T11:45:32.532Z,3839.00
2023-02-06T11:46:32.482Z,2824.00
2023-02-06T11:47:32.485Z,2323.00
2023-02-06T11:48:32.452Z,2030.00
2023-02-06T11:49:32.418Z,1882.00
2023-02-06T11:50:32.400Z,2080.00
2023-02-06T11:51:32.395Z,1878.00
2023-02-06T11:52:32.439Z,1394.00
2023-02-06T11:53:32.384Z,1095.00
2023-02-06T11:54:32.429Z,2252.00
2023-02-06T11:55:32.400Z,2799.00
2023-02-06T11:56:32.349Z,2665.00
2023-02-06T11:57:32.345Z,2621.00
2023-02-06T11:58:32.318Z,2861.00
2023-02-06T11:59:32.317Z,3276.00
2023-02-06T12:00:32.345Z,2906.00
2023-02-06T12:01:32.294Z,2407.00
2023-02-06T12:02:32.343Z,2581.00
2023-02-06T12:03:32.310Z,3048.00
2023-02-06T12:04:32.275Z,2404.00
2023-02-06T12:05:32.253Z,2671.00
2023-02-06T12:06:32.269Z,2346.00
2023-02-06T12:07:32.224Z,2450.00
2023-02-06T12:08:32.203Z,2686.00
2023-02-06T12:09:32.206Z,2622.00
2023-02-06T12:10:32.179Z,1986.00
2023-02-06T12:11:32.186Z,1888.00
2023-02-06T12:12:32.168Z,2324.00
2023-02-06T12:13:32.178Z,2249.00
2023-02-06T12:14:32.170Z,2010.00
2023-02-06T12:15:46.070Z,2115.00
2023-02-06T12:16:32.148Z,1970.00
2023-02-06T12:17:32.128Z,2105.00
2023-02-06T12:18:32.106Z,1776.00
2023-02-06T12:19:32.097Z,1495.00
2023-02-06T12:20:32.110Z,1953.00
2023-02-06T12:21:32.101Z,2825.00
2023-02-06T12:22:32.068Z,2415.00
2023-02-06T12:23:32.055Z,1989.00
2023-02-06T12:24:32.044Z,1862.00
2023-02-06T12:25:32.067Z,1671.00
2023-02-06T12:26:32.027Z,1825.00
2023-02-06T12:27:32.056Z,1923.00
2023-02-06T12:28:32.083Z,2269.00
2023-02-06T12:29:32.139Z,2120.00
2023-02-06T12:30:32.038Z,1626.00
2023-02-06T12:31:32.217Z,1317.00
2023-02-06T12:32:31.990Z,1141.00
2023-02-06T12:33:31.962Z,1167.00
2023-02-06T12:34:32.021Z,1119.00
2023-02-06T12:35:32.004Z,1634.00
2023-02-06T12:36:31.918Z,1846.00
2023-02-06T12:37:31.955Z,1565.00
2023-02-06T12:38:31.890Z,1442.00
2023-02-06T12:39:31.879Z,1407.00
2023-02-06T12:40:31.874Z,1363.00
2023-02-06T12:41:31.879Z,1243.00
2023-02-06T12:42:31.869Z,1353.00
2023-02-06T12:43:31.842Z,1454.00
2023-02-06T12:44:31.841Z,1469.00
2023-02-06T12:45:31.948Z,1482.00
2023-02-06T12:46:31.905Z,1474.00
2023-02-06T12:47:31.815Z,1603.00
2023-02-06T12:48:31.779Z,1569.00
2023-02-06T12:49:31.868Z,1268.00
2023-02-06T12:50:31.806Z,1293.00
2023-02-06T12:51:31.827Z,1344.00
2023-02-06T12:52:31.741Z,1275.00
2023-02-06T12:53:31.742Z,1158.00
2023-02-06T12:54:31.797Z,1131.00
2023-02-06T12:55:31.727Z,1198.00
2023-02-06T12:56:31.722Z,1447.00
2023-02-06T12:57:31.694Z,1714.00
2023-02-06T12:58:31.691Z,1730.00
2023-02-06T12:59:31.681Z,1727.00
2023-02-06T13:00:31.675Z,1592.00
2023-02-06T13:01:34.362Z,1495.00
2023-02-06T13:02:31.722Z,1557.00
2023-02-06T13:03:31.642Z,1602.00
2023-02-06T13:04:31.615Z,1661.00
2023-02-06T13:05:31.614Z,1767.00
2023-02-06T13:06:31.598Z,1720.00
2023-02-06T13:07:33.942Z,1635.00
2023-02-06T13:08:31.611Z,1723.00
2023-02-06T13:09:31.585Z,1924.00
2023-02-06T13:10:31.553Z,1846.00
2023-02-06T13:11:31.561Z,1791.00
2023-02-06T13:12:31.682Z,1734.00
2023-02-06T13:13:31.575Z,1671.00
2023-02-06T13:14:31.604Z,1651.00
2023-02-06T13:15:31.570Z,1703.00
2023-02-06T13:16:31.506Z,1794.00
2023-02-06T13:17:31.526Z,1958.00
2023-02-06T13:18:31.484Z,2003.00
2023-02-06T13:19:31.502Z,1960.00
2023-02-06T13:20:33.348Z,1951.00
2023-02-06T13:21:31.463Z,1958.00
2023-02-06T13:22:31.600Z,1885.00
2023-02-06T13:23:31.425Z,1889.00
2023-02-06T13:24:31.913Z,1955.00
2023-02-06T13:25:31.514Z,2059.00
2023-02-06T13:26:31.464Z,2075.00
2023-02-06T13:27:31.401Z,2102.00
2023-02-06T13:28:31.387Z,2100.00
2023-02-06T13:29:31.365Z,2093.00
2023-02-06T13:30:31.601Z,2040.00
2023-02-06T13:31:31.452Z,1941.00
2023-02-06T13:32:31.381Z,1899.00
2023-02-06T13:33:31.329Z,1907.00
2023-02-06T13:34:31.359Z,1973.00
2023-02-06T13:35:31.414Z,1850.00
2023-02-06T13:36:31.368Z,1656.00
2023-02-06T13:37:31.360Z,1622.00
2023-02-06T13:38:31.295Z,1671.00
2023-02-06T13:39:31.273Z,1623.00
2023-02-06T13:40:31.282Z,1740.00
2023-02-06T13:41:31.257Z,1975.00
2023-02-06T13:42:31.234Z,2082.00
2023-02-06T13:43:31.843Z,2253.00
2023-02-06T13:44:31.227Z,2220.00
2023-02-06T13:45:31.268Z,2116.00
2023-02-06T13:46:31.264Z,2102.00
2023-02-06T13:47:31.221Z,2055.00
2023-02-06T13:48:31.252Z,1911.00
2023-02-06T13:49:31.184Z,1763.00
2023-02-06T13:50:31.148Z,1612.00
2023-02-06T13:51:31.139Z,1525.00
2023-02-06T13:52:31.128Z,1544.00
2023-02-06T13:53:31.135Z,1735.00
2023-02-06T13:54:31.122Z,1817.00
2023-02-06T13:55:31.151Z,1769.00
2023-02-06T13:56:31.080Z,1824.00
2023-02-06T13:57:31.094Z,1869.00
2023-02-06T13:58:31.065Z,1739.00
2023-02-06T13:59:31.064Z,1934.00
2023-02-06T14:00:31.097Z,2165.00
2023-02-06T14:01:31.128Z,1989.00
2023-02-06T14:02:31.189Z,1746.00
2023-02-06T14:03:31.125Z,1689.00
2023-02-06T14:04:31.035Z,1768.00
2023-02-06T14:05:31.133Z,1885.00
2023-02-06T14:06:31.000Z,1901.00
2023-02-06T14:07:31.239Z,1658.00
2023-02-06T14:08:30.965Z,1748.00
2023-02-06T14:09:30.955Z,1903.00
2023-02-06T14:10:30.952Z,2020.00
2023-02-06T14:11:30.926Z,1781.00
2023-02-06T14:12:30.999Z,1760.00
2023-02-06T14:13:30.932Z,1795.00
2023-02-06T14:14:30.910Z,1699.00
2023-02-06T14:15:31.295Z,1517.00
2023-02-06T14:16:30.883Z,1422.00
2023-02-06T14:17:30.868Z,1403.00
2023-02-06T14:18:30.889Z,1481.00
2023-02-06T14:19:30.870Z,1539.00
2023-02-06T14:20:30.849Z,1442.00
2023-02-06T14:21:30.880Z,1509.00
2023-02-06T14:22:30.812Z,1604.00
2023-02-06T14:23:30.807Z,1703.00
2023-02-06T14:24:30.902Z,1883.00
2023-02-06T14:25:30.856Z,1878.00
2023-02-06T14:26:30.778Z,1948.00
2023-02-06T14:27:30.834Z,1798.00
2023-02-06T14:28:30.810Z,1960.00
2023-02-06T14:29:30.772Z,1969.00
2023-02-06T14:30:30.802Z,1758.00
2023-02-06T14:31:30.787Z,1736.00
2023-02-06T14:32:30.767Z,2009.00
2023-02-06T14:33:30.693Z,2111.00
2023-02-06T14:34:30.709Z,2178.00
2023-02-06T14:35:30.670Z,2288.00
2023-02-06T14:36:30.673Z,2335.00
2023-02-06T14:37:30.661Z,2353.00
2023-02-06T14:38:30.634Z,2633.00
2023-02-06T14:39:30.638Z,2681.00
2023-02-06T14:40:30.814Z,2576.00
2023-02-06T14:41:30.646Z,2378.00
2023-02-06T14:42:30.704Z,2091.00
2023-02-06T14:43:30.646Z,2321.00
2023-02-06T14:44:30.582Z,2524.00
2023-02-06T14:45:38.610Z,2649.00
2023-02-06T14:46:30.626Z,2508.00
2023-02-06T14:47:30.599Z,2171.00
2023-02-06T14:48:30.542Z,2133.00
2023-02-06T14:49:30.644Z,2520.00
2023-02-06T14:50:30.599Z,2194.00
2023-02-06T14:51:30.525Z,1952.00
2023-02-06T14:52:30.495Z,1881.00
2023-02-06T14:53:30.501Z,1912.00
2023-02-06T14:54:30.548Z,1756.00
2023-02-06T14:55:30.471Z,1614.00
2023-02-06T14:56:30.643Z,1546.00
2023-02-06T14:57:30.455Z,1422.00
2023-02-06T14:58:30.439Z,1461.00
2023-02-06T14:59:30.427Z,1390.00
2023-02-06T15:00:30.446Z,1415.00
2023-02-06T15:01:32.636Z,1523.00
2023-02-06T15:02:30.390Z,1721.00
2023-02-06T15:03:30.784Z,1751.00
2023-02-06T15:04:30.403Z,1598.00
2023-02-06T15:05:30.375Z,1521.00
2023-02-06T15:06:30.351Z,1450.00
2023-02-06T15:07:30.346Z,1403.00
2023-02-06T15:08:32.530Z,1488.00
2023-02-06T15:09:30.561Z,1660.00
2023-02-06T15:10:30.319Z,1593.00
2023-02-06T15:11:30.288Z,991.00
2023-02-06T15:12:30.310Z,652.00
2023-02-06T15:13:30.281Z,1053.00
2023-02-06T15:14:30.289Z,3798.00
2023-02-06T15:15:30.291Z,1885.00
2023-02-06T15:16:30.383Z,1309.00
2023-02-06T15:17:30.264Z,581.00
2023-02-06T15:18:30.761Z,1031.00
2023-02-06T15:19:30.221Z,767.00
2023-02-06T15:20:30.217Z,1683.00
2023-02-06T15:21:30.183Z,2768.00
2023-02-06T15:22:30.200Z,2049.00
2023-02-06T15:23:30.176Z,646.00
2023-02-06T15:24:30.164Z,982.00
2023-02-06T15:25:30.162Z,2155.00
2023-02-06T15:26:30.145Z,1305.00
2023-02-06T15:27:30.161Z,432.00
2023-02-06T15:28:30.150Z,563.00
2023-02-06T15:29:30.116Z,1237.00
2023-02-06T15:30:30.181Z,991.00
2023-02-06T15:31:30.151Z,789.00
2023-02-06T15:32:30.097Z,873.00
2023-02-06T15:33:30.087Z,792.00
2023-02-06T15:34:30.061Z,752.00
2023-02-06T15:35:30.044Z,731.00
2023-02-06T15:36:30.057Z,708.00
2023-02-06T15:37:30.048Z,681.00
2023-02-06T15:38:30.039Z,646.00
2023-02-06T15:39:30.028Z,615.00
2023-02-06T15:40:30.011Z,586.00
2023-02-06T15:41:30.008Z,571.00
2023-02-06T15:42:29.981Z,553.00
2023-02-06T15:43:29.981Z,528.00
2023-02-06T15:44:29.966Z,497.00
2023-02-06T15:45:30.003Z,475.00
2023-02-06T15:46:29.942Z,459.00
2023-02-06T15:47:30.037Z,438.00
2023-02-06T15:48:29.914Z,415.00
2023-02-06T15:49:29.914Z,393.00
2023-02-06T15:50:29.912Z,377.00
2023-02-06T15:51:29.915Z,354.00
2023-02-06T15:52:29.887Z,333.00
2023-02-06T15:53:29.873Z,317.00
2023-02-06T15:54:29.857Z,294.00
2023-02-06T15:55:29.857Z,274.00
2023-02-06T15:56:29.854Z,257.00
2023-02-06T15:57:29.828Z,244.00
2023-02-06T15:58:29.812Z,226.00
2023-02-06T15:59:29.807Z,210.00
2023-02-06T16:00:29.797Z,191.00
2023-02-06T16:01:29.829Z,180.00
2023-02-06T16:02:29.847Z,166.00
2023-02-06T16:03:29.806Z,153.00
2023-02-06T16:04:29.788Z,137.00
2023-02-06T16:05:29.761Z,122.00
2023-02-06T16:06:29.777Z,115.00
2023-02-06T16:07:29.746Z,104.00
2023-02-06T16:08:29.710Z,93.00
2023-02-06T16:09:29.722Z,86.00
2023-02-06T16:10:29.705Z,78.00
2023-02-06T16:11:29.770Z,65.00
2023-02-06T16:12:29.725Z,61.00
2023-02-06T16:13:29.679Z,56.00
2023-02-06T16:14:29.646Z,50.00
2023-02-06T16:15:29.646Z,41.00
2023-02-06T16:16:29.717Z,36.00
2023-02-06T16:17:29.656Z,31.00
2023-02-06T16:18:29.640Z,30.00
2023-02-06T16:19:29.590Z,28.00
2023-02-06T16:20:29.586Z,22.00
2023-02-06T16:21:29.629Z,18.00
2023-02-06T16:22:29.601Z,15.00
2023-02-06T16:23:29.580Z,10.00
2023-02-06T16:24:29.544Z,10.00
2023-02-06T16:25:29.556Z,11.00
2023-02-06T16:26:29.521Z,8.00
2023-02-06T16:27:29.537Z,6.00
2023-02-06T16:28:29.500Z,4.00
2023-02-06T16:29:29.730Z,2.00
2023-02-06T16:30:29.684Z,1.00
2023-02-06T16:31:29.641Z,6.00
2023-02-06T16:32:29.524Z,6.00
2023-02-06T16:33:29.460Z,1.00
2023-02-06T16:34:29.512Z,0.00
2023-02-06T16:35:29.481Z,1.00
2023-02-06T16:36:29.409Z,1.00
2023-02-06T16:37:29.437Z,2.00
2023-02-06T16:38:29.403Z,2.00
2023-02-06T16:39:29.443Z,0.00
2023-02-06T16:40:29.414Z,1.00
2023-02-06T16:41:29.365Z,1.00
2023-02-06T16:42:29.360Z,1.00
2023-02-06T16:43:29.530Z,1.00
2023-02-06T16:44:43.836Z,1.00
2023-02-06T16:45:29.384Z,0.00
2023-02-06T16:46:29.412Z,0.00
2023-02-06T16:47:29.381Z,0.00
2023-02-06T16:48:29.364Z,0.00
2023-02-06T16:49:29.338Z,0.00
2023-02-06T16:50:29.321Z,0.00
2023-02-06T16:51:29.303Z,0.00
2023-02-06T16:52:29.301Z,0.00
2023-02-06T16:53:29.312Z,0.00
2023-02-06T16:54:29.293Z,0.00
2023-02-06T16:55:29.267Z,0.00
2023-02-06T16:56:29.462Z,0.00
2023-02-06T16:57:29.273Z,0.00
2023-02-06T16:58:29.318Z,0.00
2023-02-06T16:59:29.243Z,0.00
2023-02-06T17:00:31.102Z,1.00
2023-02-06T17:01:29.250Z,0.00
2023-02-06T17:02:29.201Z,0.00
2023-02-06T17:03:30.186Z,0.00
2023-02-06T17:04:29.253Z,0.00
2023-02-06T17:05:29.171Z,0.00
2023-02-06T17:06:29.188Z,0.00
2023-02-06T17:07:29.139Z,0.00
2023-02-06T17:08:29.148Z,0.00
2023-02-06T17:09:29.152Z,0.00
2023-02-06T17:10:29.119Z,0.00
2023-02-06T17:11:29.106Z,0.00
2023-02-06T17:12:29.122Z,0.00
2023-02-06T17:13:29.129Z,0.00
2023-02-06T17:14:29.086Z,0.00
2023-02-06T17:15:29.190Z,0.00
2023-02-06T17:16:29.151Z,0.00
2023-02-06T17:17:29.130Z,0.00
2023-02-06T17:18:29.066Z,0.00
2023-02-06T17:19:29.031Z,0.00
2023-02-06T17:20:29.015Z,0.00
2023-02-06T17:21:29.146Z,0.00
2023-02-06T17:22:28.998Z,0.00
2023-02-06T17:23:29.122Z,0.00
2023-02-06T17:24:29.021Z,0.00
2023-02-06T17:25:28.971Z,0.00
2023-02-06T17:26:29.010Z,0.00
2023-02-06T17:27:28.947Z,0.00